sensor_id;sensor_type;location;lat;lon;timestamp;P1;durP1;ratioP1;P2;durP2;ratioP2
25069;SDS011;13064;48.162;11.536;2022-12-18T00:00:48;56.38;;;25.05;;
25069;SDS011;13064;48.162;11.536;2022-12-18T00:03:16;51.38;;;22.98;;
25069;SDS011;13064;48.162;11.536;2022-12-18T00:05:46;53.20;;;23.92;;
25069;SDS011;13064;48.162;11.536;2022-12-18T00:08:14;55.03;;;25.33;;
25069;SDS011;13064;48.162;11.536;2022-12-18T00:10:41;61.08;;;25.88;;
25069;SDS011;13064;48.162;11.536;2022-12-18T00:13:09;55.42;;;24.02;;
25069;SDS011;13064;48.162;11.536;2022-12-18T00:15:37;55.85;;;24.95;;
25069;SDS011;13064;48.162;11.536;2022-12-18T00:18:05;56.10;;;24.30;;
25069;SDS011;13064;48.162;11.536;2022-12-18T00:20:36;59.97;;;25.48;;
25069;SDS011;13064;48.162;11.536;2022-12-18T00:25:33;53.85;;;23.48;;
25069;SDS011;13064;48.162;11.536;2022-12-18T00:28:01;55.40;;;23.60;;
25069;SDS011;13064;48.162;11.536;2022-12-18T00:30:29;61.38;;;24.48;;
25069;SDS011;13064;48.162;11.536;2022-12-18T00:32:57;59.95;;;24.38;;
25069;SDS011;13064;48.162;11.536;2022-12-18T00:35:25;53.92;;;24.70;;
25069;SDS011;13064;48.162;11.536;2022-12-18T00:37:52;52.25;;;22.90;;
25069;SDS011;13064;48.162;11.536;2022-12-18T00:40:22;59.83;;;25.20;;
25069;SDS011;13064;48.162;11.536;2022-12-18T00:42:49;58.08;;;24.80;;
25069;SDS011;13064;48.162;11.536;2022-12-18T00:45:24;57.88;;;24.38;;
25069;SDS011;13064;48.162;11.536;2022-12-18T00:47:52;53.83;;;24.27;;
25069;SDS011;13064;48.162;11.536;2022-12-18T00:50:21;61.75;;;25.60;;
25069;SDS011;13064;48.162;11.536;2022-12-18T00:52:48;54.55;;;24.00;;
25069;SDS011;13064;48.162;11.536;2022-12-18T00:55:16;55.65;;;23.73;;
25069;SDS011;13064;48.162;11.536;2022-12-18T00:57:46;56.45;;;24.67;;
25069;SDS011;13064;48.162;11.536;2022-12-18T01:00:14;57.53;;;22.88;;
25069;SDS011;13064;48.162;11.536;2022-12-18T01:02:42;55.28;;;22.58;;
25069;SDS011;13064;48.162;11.536;2022-12-18T01:05:11;59.35;;;24.45;;
25069;SDS011;13064;48.162;11.536;2022-12-18T01:07:40;53.22;;;21.67;;
25069;SDS011;13064;48.162;11.536;2022-12-18T01:10:08;54.50;;;22.77;;
25069;SDS011;13064;48.162;11.536;2022-12-18T01:12:36;49.75;;;21.65;;
25069;SDS011;13064;48.162;11.536;2022-12-18T01:15:04;55.03;;;21.90;;
25069;SDS011;13064;48.162;11.536;2022-12-18T01:17:32;51.38;;;21.58;;
25069;SDS011;13064;48.162;11.536;2022-12-18T01:20:00;49.97;;;21.15;;
25069;SDS011;13064;48.162;11.536;2022-12-18T01:22:27;50.50;;;21.65;;
25069;SDS011;13064;48.162;11.536;2022-12-18T01:24:55;48.22;;;20.48;;
25069;SDS011;13064;48.162;11.536;2022-12-18T01:27:22;52.53;;;20.92;;
25069;SDS011;13064;48.162;11.536;2022-12-18T01:29:51;53.15;;;21.05;;
25069;SDS011;13064;48.162;11.536;2022-12-18T01:32:19;55.95;;;21.73;;
25069;SDS011;13064;48.162;11.536;2022-12-18T01:34:46;50.42;;;21.27;;
25069;SDS011;13064;48.162;11.536;2022-12-18T01:37:14;52.33;;;21.85;;
25069;SDS011;13064;48.162;11.536;2022-12-18T01:39:41;51.63;;;20.90;;
25069;SDS011;13064;48.162;11.536;2022-12-18T01:42:11;50.22;;;20.63;;
25069;SDS011;13064;48.162;11.536;2022-12-18T01:50:00;58.38;;;22.70;;
25069;SDS011;13064;48.162;11.536;2022-12-18T01:52:30;50.97;;;22.77;;
25069;SDS011;13064;48.162;11.536;2022-12-18T01:54:59;52.38;;;23.40;;
25069;SDS011;13064;48.162;11.536;2022-12-18T01:57:27;48.22;;;21.70;;
25069;SDS011;13064;48.162;11.536;2022-12-18T01:59:56;55.88;;;22.73;;
25069;SDS011;13064;48.162;11.536;2022-12-18T02:02:26;53.72;;;23.30;;
25069;SDS011;13064;48.162;11.536;2022-12-18T02:04:55;53.13;;;22.73;;
25069;SDS011;13064;48.162;11.536;2022-12-18T02:07:25;52.85;;;22.65;;
25069;SDS011;13064;48.162;11.536;2022-12-18T02:12:23;58.78;;;21.88;;
25069;SDS011;13064;48.162;11.536;2022-12-18T02:15:12;54.15;;;23.05;;
25069;SDS011;13064;48.162;11.536;2022-12-18T02:17:43;51.33;;;22.15;;
25069;SDS011;13064;48.162;11.536;2022-12-18T02:20:32;56.85;;;23.67;;
25069;SDS011;13064;48.162;11.536;2022-12-18T02:28:06;53.83;;;23.27;;
25069;SDS011;13064;48.162;11.536;2022-12-18T02:30:38;52.90;;;24.15;;
25069;SDS011;13064;48.162;11.536;2022-12-18T02:33:07;54.33;;;23.25;;
25069;SDS011;13064;48.162;11.536;2022-12-18T02:35:38;53.53;;;23.50;;
25069;SDS011;13064;48.162;11.536;2022-12-18T02:38:07;58.92;;;23.85;;
25069;SDS011;13064;48.162;11.536;2022-12-18T02:40:38;55.30;;;24.38;;
25069;SDS011;13064;48.162;11.536;2022-12-18T02:43:09;57.13;;;24.80;;
25069;SDS011;13064;48.162;11.536;2022-12-18T02:45:54;58.35;;;24.83;;
25069;SDS011;13064;48.162;11.536;2022-12-18T02:48:24;64.80;;;25.88;;
25069;SDS011;13064;48.162;11.536;2022-12-18T02:53:53;59.78;;;25.83;;
25069;SDS011;13064;48.162;11.536;2022-12-18T02:56:26;63.53;;;25.13;;
25069;SDS011;13064;48.162;11.536;2022-12-18T02:58:57;65.18;;;25.70;;
25069;SDS011;13064;48.162;11.536;2022-12-18T03:06:56;64.57;;;25.88;;
25069;SDS011;13064;48.162;11.536;2022-12-18T03:09:29;61.67;;;25.58;;
25069;SDS011;13064;48.162;11.536;2022-12-18T03:12:01;59.58;;;23.35;;
25069;SDS011;13064;48.162;11.536;2022-12-18T03:14:54;59.13;;;24.63;;
25069;SDS011;13064;48.162;11.536;2022-12-18T03:17:26;54.40;;;22.75;;
25069;SDS011;13064;48.162;11.536;2022-12-18T03:19:55;55.72;;;23.42;;
25069;SDS011;13064;48.162;11.536;2022-12-18T03:22:24;56.33;;;24.45;;
25069;SDS011;13064;48.162;11.536;2022-12-18T03:24:54;61.80;;;24.30;;
25069;SDS011;13064;48.162;11.536;2022-12-18T03:27:23;58.17;;;24.30;;
25069;SDS011;13064;48.162;11.536;2022-12-18T03:29:56;62.38;;;26.48;;
25069;SDS011;13064;48.162;11.536;2022-12-18T03:32:39;56.97;;;24.15;;
25069;SDS011;13064;48.162;11.536;2022-12-18T03:35:09;60.17;;;24.40;;
25069;SDS011;13064;48.162;11.536;2022-12-18T03:37:37;57.10;;;24.60;;
25069;SDS011;13064;48.162;11.536;2022-12-18T03:40:07;62.70;;;25.63;;
25069;SDS011;13064;48.162;11.536;2022-12-18T03:43:26;61.78;;;25.20;;
25069;SDS011;13064;48.162;11.536;2022-12-18T03:45:31;50.92;;;23.38;;
25069;SDS011;13064;48.162;11.536;2022-12-18T03:48:01;56.85;;;24.00;;
25069;SDS011;13064;48.162;11.536;2022-12-18T03:55:35;56.25;;;24.52;;
25069;SDS011;13064;48.162;11.536;2022-12-18T03:58:05;62.95;;;25.80;;
25069;SDS011;13064;48.162;11.536;2022-12-18T04:00:46;56.60;;;23.48;;
25069;SDS011;13064;48.162;11.536;2022-12-18T04:03:15;55.85;;;24.27;;
25069;SDS011;13064;48.162;11.536;2022-12-18T04:05:48;54.47;;;24.77;;
25069;SDS011;13064;48.162;11.536;2022-12-18T04:08:19;48.63;;;21.65;;
25069;SDS011;13064;48.162;11.536;2022-12-18T04:10:58;56.83;;;24.20;;
25069;SDS011;13064;48.162;11.536;2022-12-18T04:13:29;56.80;;;23.92;;
25069;SDS011;13064;48.162;11.536;2022-12-18T04:16:01;58.25;;;25.40;;
25069;SDS011;13064;48.162;11.536;2022-12-18T04:18:29;58.90;;;24.83;;
25069;SDS011;13064;48.162;11.536;2022-12-18T04:20:58;51.90;;;23.23;;
25069;SDS011;13064;48.162;11.536;2022-12-18T04:23:26;48.92;;;22.95;;
25069;SDS011;13064;48.162;11.536;2022-12-18T04:25:57;51.53;;;23.10;;
25069;SDS011;13064;48.162;11.536;2022-12-18T04:28:57;50.20;;;22.90;;
25069;SDS011;13064;48.162;11.536;2022-12-18T04:31:24;56.22;;;23.70;;
25069;SDS011;13064;48.162;11.536;2022-12-18T04:33:52;50.60;;;22.58;;
25069;SDS011;13064;48.162;11.536;2022-12-18T04:36:21;49.25;;;22.17;;
25069;SDS011;13064;48.162;11.536;2022-12-18T04:38:48;53.20;;;22.50;;
25069;SDS011;13064;48.162;11.536;2022-12-18T04:41:16;53.28;;;23.25;;
25069;SDS011;13064;48.162;11.536;2022-12-18T04:43:46;49.88;;;22.33;;
25069;SDS011;13064;48.162;11.536;2022-12-18T04:46:14;48.05;;;21.40;;
25069;SDS011;13064;48.162;11.536;2022-12-18T04:48:41;51.90;;;21.90;;
25069;SDS011;13064;48.162;11.536;2022-12-18T04:51:09;50.40;;;21.58;;
25069;SDS011;13064;48.162;11.536;2022-12-18T04:53:38;51.33;;;22.00;;
25069;SDS011;13064;48.162;11.536;2022-12-18T04:56:08;49.13;;;21.90;;
25069;SDS011;13064;48.162;11.536;2022-12-18T04:58:36;49.25;;;22.02;;
25069;SDS011;13064;48.162;11.536;2022-12-18T05:01:03;48.67;;;22.27;;
25069;SDS011;13064;48.162;11.536;2022-12-18T05:03:31;47.92;;;21.83;;
25069;SDS011;13064;48.162;11.536;2022-12-18T05:05:59;49.50;;;22.45;;
25069;SDS011;13064;48.162;11.536;2022-12-18T05:08:27;55.00;;;22.73;;
25069;SDS011;13064;48.162;11.536;2022-12-18T05:10:58;55.20;;;22.20;;
25069;SDS011;13064;48.162;11.536;2022-12-18T05:13:26;53.03;;;22.45;;
25069;SDS011;13064;48.162;11.536;2022-12-18T05:15:54;50.55;;;21.92;;
25069;SDS011;13064;48.162;11.536;2022-12-18T05:18:23;48.58;;;22.02;;
25069;SDS011;13064;48.162;11.536;2022-12-18T05:20:51;48.30;;;20.98;;
25069;SDS011;13064;48.162;11.536;2022-12-18T05:23:19;51.53;;;21.77;;
25069;SDS011;13064;48.162;11.536;2022-12-18T05:25:55;49.33;;;20.98;;
25069;SDS011;13064;48.162;11.536;2022-12-18T05:28:23;51.33;;;22.58;;
25069;SDS011;13064;48.162;11.536;2022-12-18T05:30:53;43.85;;;20.13;;
25069;SDS011;13064;48.162;11.536;2022-12-18T05:33:21;46.85;;;20.85;;
25069;SDS011;13064;48.162;11.536;2022-12-18T05:35:50;49.90;;;21.88;;
25069;SDS011;13064;48.162;11.536;2022-12-18T05:38:19;48.20;;;21.02;;
25069;SDS011;13064;48.162;11.536;2022-12-18T05:40:47;51.70;;;21.75;;
25069;SDS011;13064;48.162;11.536;2022-12-18T05:43:15;51.55;;;21.65;;
25069;SDS011;13064;48.162;11.536;2022-12-18T05:45:47;54.28;;;21.90;;
25069;SDS011;13064;48.162;11.536;2022-12-18T05:48:15;48.00;;;21.08;;
25069;SDS011;13064;48.162;11.536;2022-12-18T05:50:44;45.65;;;20.42;;
25069;SDS011;13064;48.162;11.536;2022-12-18T05:53:13;51.03;;;21.70;;
25069;SDS011;13064;48.162;11.536;2022-12-18T05:55:41;46.97;;;21.08;;
25069;SDS011;13064;48.162;11.536;2022-12-18T05:58:10;45.17;;;19.83;;
25069;SDS011;13064;48.162;11.536;2022-12-18T06:00:39;41.72;;;19.80;;
25069;SDS011;13064;48.162;11.536;2022-12-18T06:03:08;45.90;;;20.27;;
25069;SDS011;13064;48.162;11.536;2022-12-18T06:05:36;44.20;;;20.05;;
25069;SDS011;13064;48.162;11.536;2022-12-18T06:08:04;45.67;;;20.38;;
25069;SDS011;13064;48.162;11.536;2022-12-18T06:10:33;43.17;;;19.73;;
25069;SDS011;13064;48.162;11.536;2022-12-18T06:13:00;47.58;;;19.50;;
25069;SDS011;13064;48.162;11.536;2022-12-18T06:15:28;48.38;;;20.52;;
25069;SDS011;13064;48.162;11.536;2022-12-18T06:17:56;42.00;;;18.75;;
25069;SDS011;13064;48.162;11.536;2022-12-18T06:20:23;43.63;;;19.13;;
25069;SDS011;13064;48.162;11.536;2022-12-18T06:22:58;44.90;;;20.30;;
25069;SDS011;13064;48.162;11.536;2022-12-18T06:25:26;44.67;;;19.02;;
25069;SDS011;13064;48.162;11.536;2022-12-18T06:27:54;42.78;;;19.05;;
25069;SDS011;13064;48.162;11.536;2022-12-18T06:30:21;43.90;;;20.05;;
25069;SDS011;13064;48.162;11.536;2022-12-18T06:32:49;47.50;;;20.92;;
25069;SDS011;13064;48.162;11.536;2022-12-18T06:35:22;49.83;;;20.35;;
25069;SDS011;13064;48.162;11.536;2022-12-18T06:37:50;43.83;;;19.63;;
25069;SDS011;13064;48.162;11.536;2022-12-18T06:40:17;42.42;;;18.52;;
25069;SDS011;13064;48.162;11.536;2022-12-18T06:42:45;42.10;;;19.42;;
25069;SDS011;13064;48.162;11.536;2022-12-18T06:45:16;47.28;;;20.13;;
25069;SDS011;13064;48.162;11.536;2022-12-18T06:47:43;49.97;;;21.20;;
25069;SDS011;13064;48.162;11.536;2022-12-18T06:50:11;48.83;;;20.63;;
25069;SDS011;13064;48.162;11.536;2022-12-18T06:52:39;48.13;;;20.92;;
25069;SDS011;13064;48.162;11.536;2022-12-18T06:55:07;49.08;;;20.33;;
25069;SDS011;13064;48.162;11.536;2022-12-18T06:57:34;44.78;;;20.45;;
25069;SDS011;13064;48.162;11.536;2022-12-18T07:00:03;47.30;;;19.83;;
25069;SDS011;13064;48.162;11.536;2022-12-18T07:02:31;46.53;;;19.85;;
25069;SDS011;13064;48.162;11.536;2022-12-18T07:04:59;43.47;;;19.00;;
25069;SDS011;13064;48.162;11.536;2022-12-18T07:07:34;44.85;;;20.70;;
25069;SDS011;13064;48.162;11.536;2022-12-18T07:10:02;43.28;;;19.15;;
25069;SDS011;13064;48.162;11.536;2022-12-18T07:12:30;49.53;;;19.67;;
25069;SDS011;13064;48.162;11.536;2022-12-18T07:14:57;45.42;;;20.10;;
25069;SDS011;13064;48.162;11.536;2022-12-18T07:17:25;43.45;;;19.15;;
25069;SDS011;13064;48.162;11.536;2022-12-18T07:19:52;43.35;;;19.35;;
25069;SDS011;13064;48.162;11.536;2022-12-18T07:22:20;38.70;;;18.30;;
25069;SDS011;13064;48.162;11.536;2022-12-18T07:24:48;45.03;;;19.60;;
25069;SDS011;13064;48.162;11.536;2022-12-18T07:27:15;42.13;;;19.17;;
25069;SDS011;13064;48.162;11.536;2022-12-18T07:29:43;42.45;;;18.95;;
25069;SDS011;13064;48.162;11.536;2022-12-18T07:32:11;40.85;;;19.20;;
25069;SDS011;13064;48.162;11.536;2022-12-18T07:34:39;42.67;;;19.15;;
25069;SDS011;13064;48.162;11.536;2022-12-18T07:37:07;40.45;;;17.85;;
25069;SDS011;13064;48.162;11.536;2022-12-18T07:39:35;37.28;;;18.23;;
25069;SDS011;13064;48.162;11.536;2022-12-18T07:42:02;40.28;;;18.83;;
25069;SDS011;13064;48.162;11.536;2022-12-18T07:44:50;42.55;;;18.02;;
25069;SDS011;13064;48.162;11.536;2022-12-18T07:47:17;40.58;;;18.13;;
25069;SDS011;13064;48.162;11.536;2022-12-18T07:49:45;41.70;;;19.58;;
25069;SDS011;13064;48.162;11.536;2022-12-18T07:52:12;39.65;;;18.50;;
25069;SDS011;13064;48.162;11.536;2022-12-18T07:54:40;40.17;;;16.92;;
25069;SDS011;13064;48.162;11.536;2022-12-18T07:57:08;44.17;;;19.27;;
25069;SDS011;13064;48.162;11.536;2022-12-18T07:59:56;38.10;;;17.77;;
25069;SDS011;13064;48.162;11.536;2022-12-18T08:02:23;44.15;;;19.27;;
25069;SDS011;13064;48.162;11.536;2022-12-18T08:04:51;41.30;;;19.33;;
25069;SDS011;13064;48.162;11.536;2022-12-18T08:07:19;42.45;;;18.95;;
25069;SDS011;13064;48.162;11.536;2022-12-18T08:09:46;39.92;;;17.75;;
25069;SDS011;13064;48.162;11.536;2022-12-18T08:12:14;42.25;;;19.50;;
25069;SDS011;13064;48.162;11.536;2022-12-18T08:14:41;43.78;;;19.63;;
25069;SDS011;13064;48.162;11.536;2022-12-18T08:17:09;42.67;;;18.10;;
25069;SDS011;13064;48.162;11.536;2022-12-18T08:19:37;43.13;;;19.42;;
25069;SDS011;13064;48.162;11.536;2022-12-18T08:22:04;41.25;;;19.77;;
25069;SDS011;13064;48.162;11.536;2022-12-18T08:24:32;43.38;;;19.60;;
25069;SDS011;13064;48.162;11.536;2022-12-18T08:26:59;42.08;;;19.08;;
25069;SDS011;13064;48.162;11.536;2022-12-18T08:29:47;42.58;;;19.75;;
25069;SDS011;13064;48.162;11.536;2022-12-18T08:32:14;44.58;;;19.35;;
25069;SDS011;13064;48.162;11.536;2022-12-18T08:34:42;42.38;;;20.35;;
25069;SDS011;13064;48.162;11.536;2022-12-18T08:37:09;40.95;;;18.70;;
25069;SDS011;13064;48.162;11.536;2022-12-18T08:39:37;39.15;;;18.15;;
25069;SDS011;13064;48.162;11.536;2022-12-18T08:42:04;41.97;;;19.58;;
25069;SDS011;13064;48.162;11.536;2022-12-18T08:44:51;40.55;;;18.73;;
25069;SDS011;13064;48.162;11.536;2022-12-18T08:47:18;38.00;;;18.45;;
25069;SDS011;13064;48.162;11.536;2022-12-18T08:49:46;34.97;;;17.27;;
25069;SDS011;13064;48.162;11.536;2022-12-18T08:52:13;38.55;;;18.35;;
25069;SDS011;13064;48.162;11.536;2022-12-18T08:54:41;31.73;;;15.95;;
25069;SDS011;13064;48.162;11.536;2022-12-18T08:57:08;36.95;;;17.52;;
25069;SDS011;13064;48.162;11.536;2022-12-18T08:59:36;34.33;;;16.08;;
25069;SDS011;13064;48.162;11.536;2022-12-18T09:02:03;33.50;;;15.65;;
25069;SDS011;13064;48.162;11.536;2022-12-18T09:04:31;33.40;;;16.48;;
25069;SDS011;13064;48.162;11.536;2022-12-18T09:06:59;36.15;;;17.00;;
25069;SDS011;13064;48.162;11.536;2022-12-18T09:09:27;37.47;;;16.63;;
25069;SDS011;13064;48.162;11.536;2022-12-18T09:11:54;37.90;;;17.90;;
25069;SDS011;13064;48.162;11.536;2022-12-18T09:14:22;33.33;;;16.38;;
25069;SDS011;13064;48.162;11.536;2022-12-18T09:16:49;35.03;;;16.25;;
25069;SDS011;13064;48.162;11.536;2022-12-18T09:19:17;34.63;;;15.93;;
25069;SDS011;13064;48.162;11.536;2022-12-18T09:21:44;37.03;;;17.33;;
25069;SDS011;13064;48.162;11.536;2022-12-18T09:24:14;34.10;;;16.00;;
25069;SDS011;13064;48.162;11.536;2022-12-18T09:26:42;32.72;;;15.52;;
25069;SDS011;13064;48.162;11.536;2022-12-18T09:29:14;34.30;;;16.02;;
25069;SDS011;13064;48.162;11.536;2022-12-18T09:31:44;33.28;;;14.90;;
25069;SDS011;13064;48.162;11.536;2022-12-18T09:34:12;31.10;;;15.05;;
25069;SDS011;13064;48.162;11.536;2022-12-18T09:36:40;34.20;;;15.90;;
25069;SDS011;13064;48.162;11.536;2022-12-18T09:39:09;33.42;;;15.38;;
25069;SDS011;13064;48.162;11.536;2022-12-18T09:41:53;31.13;;;15.32;;
25069;SDS011;13064;48.162;11.536;2022-12-18T09:44:26;32.17;;;15.65;;
25069;SDS011;13064;48.162;11.536;2022-12-18T09:46:59;33.83;;;17.02;;
25069;SDS011;13064;48.162;11.536;2022-12-18T09:49:29;37.70;;;16.00;;
25069;SDS011;13064;48.162;11.536;2022-12-18T09:56:59;34.13;;;17.20;;
25069;SDS011;13064;48.162;11.536;2022-12-18T09:59:31;38.15;;;17.38;;
25069;SDS011;13064;48.162;11.536;2022-12-18T10:02:36;38.25;;;16.58;;
25069;SDS011;13064;48.162;11.536;2022-12-18T10:05:05;36.13;;;16.70;;
25069;SDS011;13064;48.162;11.536;2022-12-18T10:07:42;32.77;;;15.67;;
25069;SDS011;13064;48.162;11.536;2022-12-18T10:13:05;36.97;;;15.80;;
25069;SDS011;13064;48.162;11.536;2022-12-18T10:20:41;33.78;;;15.95;;
25069;SDS011;13064;48.162;11.536;2022-12-18T10:25:55;31.27;;;15.38;;
25069;SDS011;13064;48.162;11.536;2022-12-18T10:28:25;33.78;;;15.52;;
25069;SDS011;13064;48.162;11.536;2022-12-18T10:30:53;34.28;;;16.35;;
25069;SDS011;13064;48.162;11.536;2022-12-18T10:33:22;35.97;;;16.45;;
25069;SDS011;13064;48.162;11.536;2022-12-18T10:35:50;30.38;;;15.32;;
25069;SDS011;13064;48.162;11.536;2022-12-18T10:40:50;33.47;;;15.73;;
25069;SDS011;13064;48.162;11.536;2022-12-18T10:43:34;32.35;;;15.85;;
25069;SDS011;13064;48.162;11.536;2022-12-18T10:46:12;30.25;;;14.50;;
25069;SDS011;13064;48.162;11.536;2022-12-18T10:48:48;28.08;;;15.07;;
25069;SDS011;13064;48.162;11.536;2022-12-18T10:53:55;33.28;;;16.05;;
25069;SDS011;13064;48.162;11.536;2022-12-18T10:56:24;36.22;;;16.25;;
25069;SDS011;13064;48.162;11.536;2022-12-18T11:01:27;32.03;;;15.65;;
25069;SDS011;13064;48.162;11.536;2022-12-18T11:06:28;32.80;;;15.55;;
25069;SDS011;13064;48.162;11.536;2022-12-18T11:09:18;28.70;;;14.63;;
25069;SDS011;13064;48.162;11.536;2022-12-18T11:11:50;32.45;;;15.48;;
25069;SDS011;13064;48.162;11.536;2022-12-18T11:14:23;30.30;;;15.27;;
25069;SDS011;13064;48.162;11.536;2022-12-18T11:16:51;37.72;;;16.23;;
25069;SDS011;13064;48.162;11.536;2022-12-18T11:19:39;32.25;;;15.68;;
25069;SDS011;13064;48.162;11.536;2022-12-18T11:22:19;33.28;;;16.25;;
25069;SDS011;13064;48.162;11.536;2022-12-18T11:27:48;36.65;;;17.92;;
25069;SDS011;13064;48.162;11.536;2022-12-18T11:32:48;38.40;;;17.77;;
25069;SDS011;13064;48.162;11.536;2022-12-18T11:35:18;37.88;;;18.10;;
25069;SDS011;13064;48.162;11.536;2022-12-18T11:37:54;34.42;;;17.17;;
25069;SDS011;13064;48.162;11.536;2022-12-18T11:40:30;36.58;;;16.92;;
25069;SDS011;13064;48.162;11.536;2022-12-18T11:43:09;32.00;;;15.32;;
25069;SDS011;13064;48.162;11.536;2022-12-18T11:45:41;32.75;;;16.45;;
25069;SDS011;13064;48.162;11.536;2022-12-18T11:50:49;34.63;;;17.25;;
25069;SDS011;13064;48.162;11.536;2022-12-18T11:53:17;35.97;;;18.17;;
25069;SDS011;13064;48.162;11.536;2022-12-18T12:01:07;42.95;;;20.90;;
25069;SDS011;13064;48.162;11.536;2022-12-18T12:13:55;36.70;;;17.75;;
25069;SDS011;13064;48.162;11.536;2022-12-18T12:26:36;33.13;;;16.42;;
25069;SDS011;13064;48.162;11.536;2022-12-18T12:31:55;32.53;;;15.52;;
25069;SDS011;13064;48.162;11.536;2022-12-18T12:34:38;33.28;;;15.48;;
25069;SDS011;13064;48.162;11.536;2022-12-18T12:37:21;28.27;;;14.65;;
25069;SDS011;13064;48.162;11.536;2022-12-18T12:39:51;29.55;;;14.90;;
25069;SDS011;13064;48.162;11.536;2022-12-18T12:42:24;33.60;;;14.60;;
25069;SDS011;13064;48.162;11.536;2022-12-18T12:45:18;28.38;;;14.70;;
25069;SDS011;13064;48.162;11.536;2022-12-18T12:47:47;31.08;;;15.82;;
25069;SDS011;13064;48.162;11.536;2022-12-18T12:50:17;28.67;;;14.48;;
25069;SDS011;13064;48.162;11.536;2022-12-18T12:52:47;28.67;;;13.68;;
25069;SDS011;13064;48.162;11.536;2022-12-18T12:55:26;30.50;;;14.63;;
25069;SDS011;13064;48.162;11.536;2022-12-18T12:57:57;31.58;;;15.18;;
25069;SDS011;13064;48.162;11.536;2022-12-18T13:00:27;30.30;;;14.52;;
25069;SDS011;13064;48.162;11.536;2022-12-18T13:03:08;29.77;;;14.73;;
25069;SDS011;13064;48.162;11.536;2022-12-18T13:05:51;32.90;;;15.23;;
25069;SDS011;13064;48.162;11.536;2022-12-18T13:13:50;30.33;;;14.77;;
25069;SDS011;13064;48.162;11.536;2022-12-18T13:16:19;30.60;;;14.75;;
25069;SDS011;13064;48.162;11.536;2022-12-18T13:18:48;29.67;;;14.23;;
25069;SDS011;13064;48.162;11.536;2022-12-18T13:21:27;31.08;;;14.73;;
25069;SDS011;13064;48.162;11.536;2022-12-18T13:23:55;31.85;;;15.32;;
25069;SDS011;13064;48.162;11.536;2022-12-18T13:28:56;30.60;;;15.00;;
25069;SDS011;13064;48.162;11.536;2022-12-18T13:34:22;30.10;;;15.57;;
25069;SDS011;13064;48.162;11.536;2022-12-18T13:36:54;32.75;;;14.55;;
25069;SDS011;13064;48.162;11.536;2022-12-18T13:44:37;30.95;;;13.70;;
25069;SDS011;13064;48.162;11.536;2022-12-18T13:47:54;30.75;;;14.90;;
25069;SDS011;13064;48.162;11.536;2022-12-18T13:49:56;34.00;;;15.75;;
25069;SDS011;13064;48.162;11.536;2022-12-18T13:52:34;30.67;;;14.93;;
25069;SDS011;13064;48.162;11.536;2022-12-18T13:55:05;32.63;;;14.98;;
25069;SDS011;13064;48.162;11.536;2022-12-18T13:57:35;32.72;;;15.10;;
25069;SDS011;13064;48.162;11.536;2022-12-18T14:02:51;35.15;;;15.73;;
25069;SDS011;13064;48.162;11.536;2022-12-18T14:07:51;33.43;;;15.70;;
25069;SDS011;13064;48.162;11.536;2022-12-18T14:10:20;29.02;;;14.00;;
25069;SDS011;13064;48.162;11.536;2022-12-18T14:13:09;29.48;;;13.88;;
25069;SDS011;13064;48.162;11.536;2022-12-18T14:15:41;36.40;;;15.18;;
25069;SDS011;13064;48.162;11.536;2022-12-18T14:20:41;35.03;;;14.60;;
25069;SDS011;13064;48.162;11.536;2022-12-18T14:23:29;35.13;;;14.43;;
25069;SDS011;13064;48.162;11.536;2022-12-18T14:25:57;30.05;;;14.90;;
25069;SDS011;13064;48.162;11.536;2022-12-18T14:28:31;36.67;;;16.08;;
25069;SDS011;13064;48.162;11.536;2022-12-18T14:30:59;30.35;;;15.02;;
25069;SDS011;13064;48.162;11.536;2022-12-18T14:33:27;35.25;;;15.60;;
25069;SDS011;13064;48.162;11.536;2022-12-18T14:38:26;34.15;;;15.32;;
25069;SDS011;13064;48.162;11.536;2022-12-18T14:40:55;35.95;;;16.35;;
25069;SDS011;13064;48.162;11.536;2022-12-18T14:43:28;35.35;;;15.32;;
25069;SDS011;13064;48.162;11.536;2022-12-18T14:45:56;36.80;;;14.98;;
25069;SDS011;13064;48.162;11.536;2022-12-18T14:50:56;37.92;;;15.55;;
25069;SDS011;13064;48.162;11.536;2022-12-18T14:53:30;31.27;;;15.18;;
25069;SDS011;13064;48.162;11.536;2022-12-18T14:55:59;35.22;;;16.20;;
25069;SDS011;13064;48.162;11.536;2022-12-18T14:58:27;31.65;;;16.08;;
25069;SDS011;13064;48.162;11.536;2022-12-18T15:00:57;36.97;;;15.68;;
25069;SDS011;13064;48.162;11.536;2022-12-18T15:03:25;32.03;;;15.10;;
25069;SDS011;13064;48.162;11.536;2022-12-18T15:05:53;34.42;;;15.75;;
25069;SDS011;13064;48.162;11.536;2022-12-18T15:08:29;34.45;;;15.43;;
25069;SDS011;13064;48.162;11.536;2022-12-18T15:10:56;38.90;;;17.15;;
25069;SDS011;13064;48.162;11.536;2022-12-18T15:13:24;36.78;;;17.02;;
25069;SDS011;13064;48.162;11.536;2022-12-18T15:15:53;35.70;;;16.35;;
25069;SDS011;13064;48.162;11.536;2022-12-18T15:18:23;33.55;;;16.20;;
25069;SDS011;13064;48.162;11.536;2022-12-18T15:21:07;33.47;;;15.70;;
25069;SDS011;13064;48.162;11.536;2022-12-18T15:26:05;34.38;;;15.63;;
25069;SDS011;13064;48.162;11.536;2022-12-18T15:33:46;38.53;;;16.13;;
25069;SDS011;13064;48.162;11.536;2022-12-18T15:36:27;35.60;;;15.80;;
25069;SDS011;13064;48.162;11.536;2022-12-18T15:38:58;34.17;;;14.77;;
25069;SDS011;13064;48.162;11.536;2022-12-18T15:41:32;39.65;;;16.48;;
25069;SDS011;13064;48.162;11.536;2022-12-18T15:44:02;34.90;;;16.55;;
25069;SDS011;13064;48.162;11.536;2022-12-18T15:46:30;36.40;;;17.27;;
25069;SDS011;13064;48.162;11.536;2022-12-18T15:48:58;36.50;;;16.85;;
25069;SDS011;13064;48.162;11.536;2022-12-18T15:51:31;37.90;;;16.30;;
25069;SDS011;13064;48.162;11.536;2022-12-18T15:54:00;37.15;;;16.65;;
25069;SDS011;13064;48.162;11.536;2022-12-18T15:56:30;36.45;;;16.40;;
25069;SDS011;13064;48.162;11.536;2022-12-18T15:59:17;38.15;;;17.50;;
25069;SDS011;13064;48.162;11.536;2022-12-18T16:01:49;42.97;;;17.00;;
25069;SDS011;13064;48.162;11.536;2022-12-18T16:04:18;36.35;;;17.13;;
25069;SDS011;13064;48.162;11.536;2022-12-18T16:06:50;39.13;;;17.15;;
25069;SDS011;13064;48.162;11.536;2022-12-18T16:09:40;36.67;;;16.88;;
25069;SDS011;13064;48.162;11.536;2022-12-18T16:12:12;35.40;;;16.88;;
25069;SDS011;13064;48.162;11.536;2022-12-18T16:14:41;33.83;;;17.08;;
25069;SDS011;13064;48.162;11.536;2022-12-18T16:17:09;33.80;;;16.92;;
25069;SDS011;13064;48.162;11.536;2022-12-18T16:19:37;36.38;;;16.50;;
25069;SDS011;13064;48.162;11.536;2022-12-18T16:22:05;36.65;;;17.25;;
25069;SDS011;13064;48.162;11.536;2022-12-18T16:24:33;36.38;;;16.92;;
25069;SDS011;13064;48.162;11.536;2022-12-18T16:27:02;37.90;;;16.33;;
25069;SDS011;13064;48.162;11.536;2022-12-18T16:29:30;35.45;;;16.30;;
25069;SDS011;13064;48.162;11.536;2022-12-18T16:31:59;35.05;;;16.02;;
25069;SDS011;13064;48.162;11.536;2022-12-18T16:34:27;40.80;;;17.15;;
25069;SDS011;13064;48.162;11.536;2022-12-18T16:36:58;35.08;;;17.73;;